Pagina principale
METAR-TAF:

METAR-TAF

Aeroporti :

Aeroporto di Stoccarda

Stoccarda, Germania

latitudine: 48-41N, longitudine: 009-13E, altezza: 396 m

Osservazione

Il bollettino è stato emesso 33 minuti fa, alle 19:20 UTC
Vento 2 kt da nord-est
Temperature 28°C
Umidità 58%
Pressione 1021 hPa
Visibilità 10 km o più
nessuna nube inferiore a 1500 m e nessun cumulonembo

METAR: EDDS 251920Z 05002KT CAVOK 28/19 Q1021 NOSIG

Ora: 21:53 (19:53 UTC)

Previsione

Il bollettino è stato emesso 2 ore e 53 minuti fa, alle 17:00 UTC
Previsione valida dal 25 alle 18 UTC al 26 alle 18 UTC
Vento 3 kt da direzioni variabili
Visibilità 10 km o più
nessuna nube inferiore a 1500 m e nessun cumulonembo
Evoluzione graduale
dal 26 alle 10 UTC al 26 alle 12 UTC
Vento 5 kt da nord

TAF: EDDS 251700Z 2518/2618 VRB03KT CAVOK BECMG 2610/2612 36005KT

Osservazioni e previsioni meteorologiche di più di 4000 aeroporti (messaggi METAR e TAF).

Le stazioni disponibili sono rappresentate dai dischi gialli e rossi sulla carta.

Puntare il mouse per vedere il nome della stazione.

Clicca sopra per visualizzare le osservazioni e previsioni meteorologiche.

Per cambiare la mappa : fare clic sui pulsanti verdi con una croce nera per ingrandire, il pulsante verde con un trattino per diminuire, o sulla freccia verde per le mappe adiacenti.


METAR-TAF: